sensor_id;sensor_type;location;lat;lon;timestamp;temperature;humidity
1447;DHT22;717;51.522;7.266;2023-03-16T00:01:02;9.00;99.90
1447;DHT22;717;51.522;7.266;2023-03-16T00:03:31;8.90;99.90
1447;DHT22;717;51.522;7.266;2023-03-16T00:06:00;8.90;99.90
1447;DHT22;717;51.522;7.266;2023-03-16T00:08:32;8.90;99.90
1447;DHT22;717;51.522;7.266;2023-03-16T00:11:00;8.90;99.90
1447;DHT22;717;51.522;7.266;2023-03-16T00:13:29;8.90;99.90
1447;DHT22;717;51.522;7.266;2023-03-16T00:16:00;8.90;99.90
1447;DHT22;717;51.522;7.266;2023-03-16T00:18:30;8.90;99.90
1447;DHT22;717;51.522;7.266;2023-03-16T00:21:04;8.90;99.90
1447;DHT22;717;51.522;7.266;2023-03-16T00:23:36;8.80;99.90
1447;DHT22;717;51.522;7.266;2023-03-16T00:26:06;8.80;99.90
1447;DHT22;717;51.522;7.266;2023-03-16T00:28:35;8.90;99.90
1447;DHT22;717;51.522;7.266;2023-03-16T00:31:05;8.90;99.90
1447;DHT22;717;51.522;7.266;2023-03-16T00:33:36;8.90;99.90
1447;DHT22;717;51.522;7.266;2023-03-16T00:36:07;8.80;99.90
1447;DHT22;717;51.522;7.266;2023-03-16T00:38:40;8.80;99.90
1447;DHT22;717;51.522;7.266;2023-03-16T00:41:12;8.80;99.90
1447;DHT22;717;51.522;7.266;2023-03-16T00:43:42;8.70;99.90
1447;DHT22;717;51.522;7.266;2023-03-16T00:46:13;8.70;99.90
1447;DHT22;717;51.522;7.266;2023-03-16T00:48:43;8.70;99.90
1447;DHT22;717;51.522;7.266;2023-03-16T00:51:14;8.60;99.90
1447;DHT22;717;51.522;7.266;2023-03-16T00:53:46;8.60;99.90
1447;DHT22;717;51.522;7.266;2023-03-16T00:56:15;8.60;99.90
1447;DHT22;717;51.522;7.266;2023-03-16T00:58:44;8.60;99.90
1447;DHT22;717;51.522;7.266;2023-03-16T01:01:14;8.60;99.90
1447;DHT22;717;51.522;7.266;2023-03-16T01:03:43;8.60;99.90
1447;DHT22;717;51.522;7.266;2023-03-16T01:06:13;8.50;99.90
1447;DHT22;717;51.522;7.266;2023-03-16T01:08:43;8.30;99.90
1447;DHT22;717;51.522;7.266;2023-03-16T01:11:16;8.30;99.90
1447;DHT22;717;51.522;7.266;2023-03-16T01:13:45;8.30;99.90
1447;DHT22;717;51.522;7.266;2023-03-16T01:16:15;8.20;99.90
1447;DHT22;717;51.522;7.266;2023-03-16T01:18:44;8.20;99.90
1447;DHT22;717;51.522;7.266;2023-03-16T01:21:12;8.20;99.90
1447;DHT22;717;51.522;7.266;2023-03-16T01:23:41;8.20;99.90
1447;DHT22;717;51.522;7.266;2023-03-16T01:26:10;8.10;99.90
1447;DHT22;717;51.522;7.266;2023-03-16T01:28:42;8.20;99.90
1447;DHT22;717;51.522;7.266;2023-03-16T01:31:12;8.20;99.90
1447;DHT22;717;51.522;7.266;2023-03-16T01:33:42;8.30;99.90
1447;DHT22;717;51.522;7.266;2023-03-16T01:36:12;8.20;99.90
1447;DHT22;717;51.522;7.266;2023-03-16T01:38:42;8.20;99.90
1447;DHT22;717;51.522;7.266;2023-03-16T01:41:11;8.20;99.90
1447;DHT22;717;51.522;7.266;2023-03-16T01:43:42;8.20;99.90
1447;DHT22;717;51.522;7.266;2023-03-16T01:46:16;8.20;99.90
1447;DHT22;717;51.522;7.266;2023-03-16T01:48:59;8.20;99.90
1447;DHT22;717;51.522;7.266;2023-03-16T01:51:34;8.20;99.90
1447;DHT22;717;51.522;7.266;2023-03-16T01:54:07;8.20;99.90
1447;DHT22;717;51.522;7.266;2023-03-16T01:56:42;8.20;99.90
1447;DHT22;717;51.522;7.266;2023-03-16T01:59:17;8.10;99.90
1447;DHT22;717;51.522;7.266;2023-03-16T02:01:48;8.10;99.90
1447;DHT22;717;51.522;7.266;2023-03-16T02:04:28;8.00;99.90
1447;DHT22;717;51.522;7.266;2023-03-16T02:06:59;8.00;99.90
1447;DHT22;717;51.522;7.266;2023-03-16T02:09:29;8.10;99.90
1447;DHT22;717;51.522;7.266;2023-03-16T02:11:58;8.10;99.90
1447;DHT22;717;51.522;7.266;2023-03-16T02:14:30;8.10;99.90
1447;DHT22;717;51.522;7.266;2023-03-16T02:16:59;8.10;99.90
1447;DHT22;717;51.522;7.266;2023-03-16T02:19:34;8.10;99.90
1447;DHT22;717;51.522;7.266;2023-03-16T02:22:06;8.10;99.90
1447;DHT22;717;51.522;7.266;2023-03-16T02:24:35;8.20;99.90
1447;DHT22;717;51.522;7.266;2023-03-16T02:27:06;8.20;99.90
1447;DHT22;717;51.522;7.266;2023-03-16T02:29:56;8.20;99.90
1447;DHT22;717;51.522;7.266;2023-03-16T02:32:28;8.20;99.90
1447;DHT22;717;51.522;7.266;2023-03-16T02:34:59;8.10;99.90
1447;DHT22;717;51.522;7.266;2023-03-16T02:37:28;8.20;99.90
1447;DHT22;717;51.522;7.266;2023-03-16T02:39:58;8.20;99.90
1447;DHT22;717;51.522;7.266;2023-03-16T02:42:30;8.20;99.90
1447;DHT22;717;51.522;7.266;2023-03-16T02:45:02;8.10;99.90
1447;DHT22;717;51.522;7.266;2023-03-16T02:47:34;8.10;99.90
1447;DHT22;717;51.522;7.266;2023-03-16T02:50:04;8.10;99.90
1447;DHT22;717;51.522;7.266;2023-03-16T02:52:34;8.10;99.90
1447;DHT22;717;51.522;7.266;2023-03-16T02:55:03;8.10;99.90
1447;DHT22;717;51.522;7.266;2023-03-16T02:57:32;8.10;99.90
1447;DHT22;717;51.522;7.266;2023-03-16T03:00:04;8.10;99.90
1447;DHT22;717;51.522;7.266;2023-03-16T03:02:38;8.10;99.90
1447;DHT22;717;51.522;7.266;2023-03-16T03:05:07;8.00;99.90
1447;DHT22;717;51.522;7.266;2023-03-16T03:07:36;8.00;99.90
1447;DHT22;717;51.522;7.266;2023-03-16T03:10:05;8.00;99.90
1447;DHT22;717;51.522;7.266;2023-03-16T03:12:34;7.90;99.90
1447;DHT22;717;51.522;7.266;2023-03-16T03:15:07;7.90;99.90
1447;DHT22;717;51.522;7.266;2023-03-16T03:17:35;7.90;99.90
1447;DHT22;717;51.522;7.266;2023-03-16T03:20:04;7.80;99.90
1447;DHT22;717;51.522;7.266;2023-03-16T03:22:40;7.80;99.90
1447;DHT22;717;51.522;7.266;2023-03-16T03:25:09;7.90;99.90
1447;DHT22;717;51.522;7.266;2023-03-16T03:27:38;7.80;99.90
1447;DHT22;717;51.522;7.266;2023-03-16T03:30:12;7.90;99.90
1447;DHT22;717;51.522;7.266;2023-03-16T03:32:41;7.90;99.90
1447;DHT22;717;51.522;7.266;2023-03-16T03:35:12;7.90;99.90
1447;DHT22;717;51.522;7.266;2023-03-16T03:37:41;7.90;99.90
1447;DHT22;717;51.522;7.266;2023-03-16T03:40:14;7.90;99.90
1447;DHT22;717;51.522;7.266;2023-03-16T03:42:43;7.90;99.90
1447;DHT22;717;51.522;7.266;2023-03-16T03:45:14;7.90;99.90
1447;DHT22;717;51.522;7.266;2023-03-16T03:47:43;7.90;99.90
1447;DHT22;717;51.522;7.266;2023-03-16T03:50:12;7.80;99.90
1447;DHT22;717;51.522;7.266;2023-03-16T03:52:41;7.80;99.90
1447;DHT22;717;51.522;7.266;2023-03-16T03:55:10;7.70;99.90
1447;DHT22;717;51.522;7.266;2023-03-16T03:57:39;7.80;99.90
1447;DHT22;717;51.522;7.266;2023-03-16T04:00:09;7.70;99.90
1447;DHT22;717;51.522;7.266;2023-03-16T04:02:40;7.80;99.90
1447;DHT22;717;51.522;7.266;2023-03-16T04:05:09;7.80;99.90
1447;DHT22;717;51.522;7.266;2023-03-16T04:07:37;7.80;99.90
1447;DHT22;717;51.522;7.266;2023-03-16T04:10:07;7.80;99.90
1447;DHT22;717;51.522;7.266;2023-03-16T04:12:36;7.80;99.90
1447;DHT22;717;51.522;7.266;2023-03-16T04:15:05;7.80;99.90
1447;DHT22;717;51.522;7.266;2023-03-16T04:17:34;7.70;99.90
1447;DHT22;717;51.522;7.266;2023-03-16T04:20:07;7.70;99.90
1447;DHT22;717;51.522;7.266;2023-03-16T04:22:39;7.70;99.90
1447;DHT22;717;51.522;7.266;2023-03-16T04:25:08;7.80;99.90
1447;DHT22;717;51.522;7.266;2023-03-16T04:27:36;7.80;99.90
1447;DHT22;717;51.522;7.266;2023-03-16T04:30:07;7.90;99.90
1447;DHT22;717;51.522;7.266;2023-03-16T04:32:39;7.90;99.90
1447;DHT22;717;51.522;7.266;2023-03-16T04:35:10;7.90;99.90
1447;DHT22;717;51.522;7.266;2023-03-16T04:37:40;7.90;99.90
1447;DHT22;717;51.522;7.266;2023-03-16T04:40:10;7.90;99.90
1447;DHT22;717;51.522;7.266;2023-03-16T04:42:44;7.90;99.90
1447;DHT22;717;51.522;7.266;2023-03-16T04:45:14;7.80;99.90
1447;DHT22;717;51.522;7.266;2023-03-16T04:47:43;7.80;99.90
1447;DHT22;717;51.522;7.266;2023-03-16T04:50:14;7.80;99.90
1447;DHT22;717;51.522;7.266;2023-03-16T04:52:43;7.80;99.90
1447;DHT22;717;51.522;7.266;2023-03-16T04:55:11;7.80;99.90
1447;DHT22;717;51.522;7.266;2023-03-16T04:57:40;7.80;99.90
1447;DHT22;717;51.522;7.266;2023-03-16T05:00:10;7.80;99.90
1447;DHT22;717;51.522;7.266;2023-03-16T05:02:43;7.80;99.90
1447;DHT22;717;51.522;7.266;2023-03-16T05:05:14;7.90;99.90
1447;DHT22;717;51.522;7.266;2023-03-16T05:07:44;7.90;99.90
1447;DHT22;717;51.522;7.266;2023-03-16T05:10:14;7.80;99.90
1447;DHT22;717;51.522;7.266;2023-03-16T05:12:43;7.80;99.90
1447;DHT22;717;51.522;7.266;2023-03-16T05:15:12;7.80;99.90
1447;DHT22;717;51.522;7.266;2023-03-16T05:17:41;7.80;99.90
1447;DHT22;717;51.522;7.266;2023-03-16T05:20:14;7.90;99.90
1447;DHT22;717;51.522;7.266;2023-03-16T05:22:44;7.90;99.90
1447;DHT22;717;51.522;7.266;2023-03-16T05:25:14;7.90;99.90
1447;DHT22;717;51.522;7.266;2023-03-16T05:27:44;7.90;99.90
1447;DHT22;717;51.522;7.266;2023-03-16T05:30:13;7.90;99.90
1447;DHT22;717;51.522;7.266;2023-03-16T05:32:43;7.90;99.90
1447;DHT22;717;51.522;7.266;2023-03-16T05:35:15;7.90;99.90
1447;DHT22;717;51.522;7.266;2023-03-16T05:37:43;7.90;99.90
1447;DHT22;717;51.522;7.266;2023-03-16T05:40:13;7.90;99.90
1447;DHT22;717;51.522;7.266;2023-03-16T05:42:48;7.90;99.90
1447;DHT22;717;51.522;7.266;2023-03-16T05:45:18;7.90;99.90
1447;DHT22;717;51.522;7.266;2023-03-16T05:47:47;8.00;99.90
1447;DHT22;717;51.522;7.266;2023-03-16T05:50:19;8.00;99.90
1447;DHT22;717;51.522;7.266;2023-03-16T05:52:47;8.00;99.90
1447;DHT22;717;51.522;7.266;2023-03-16T05:55:17;8.00;99.90
1447;DHT22;717;51.522;7.266;2023-03-16T05:57:45;8.00;99.90
1447;DHT22;717;51.522;7.266;2023-03-16T06:00:15;8.00;99.90
1447;DHT22;717;51.522;7.266;2023-03-16T06:02:47;8.00;99.90
1447;DHT22;717;51.522;7.266;2023-03-16T06:05:19;8.00;99.90
1447;DHT22;717;51.522;7.266;2023-03-16T06:07:50;8.00;99.90
1447;DHT22;717;51.522;7.266;2023-03-16T06:10:19;8.10;99.90
1447;DHT22;717;51.522;7.266;2023-03-16T06:12:48;8.10;99.90
1447;DHT22;717;51.522;7.266;2023-03-16T06:15:17;8.10;99.90
1447;DHT22;717;51.522;7.266;2023-03-16T06:17:49;8.10;99.90
1447;DHT22;717;51.522;7.266;2023-03-16T06:20:20;8.10;99.90
1447;DHT22;717;51.522;7.266;2023-03-16T06:22:49;8.20;99.90
1447;DHT22;717;51.522;7.266;2023-03-16T06:25:18;8.10;99.90
1447;DHT22;717;51.522;7.266;2023-03-16T06:27:46;8.20;99.90
1447;DHT22;717;51.522;7.266;2023-03-16T06:30:16;8.20;99.90
1447;DHT22;717;51.522;7.266;2023-03-16T06:32:45;8.20;99.90
1447;DHT22;717;51.522;7.266;2023-03-16T06:35:14;8.20;99.90
1447;DHT22;717;51.522;7.266;2023-03-16T06:37:45;8.20;99.90
1447;DHT22;717;51.522;7.266;2023-03-16T06:40:13;8.20;99.90
1447;DHT22;717;51.522;7.266;2023-03-16T06:42:42;8.20;99.90
1447;DHT22;717;51.522;7.266;2023-03-16T06:45:10;8.20;99.90
1447;DHT22;717;51.522;7.266;2023-03-16T06:47:41;8.20;99.90
1447;DHT22;717;51.522;7.266;2023-03-16T06:50:10;8.30;99.90
1447;DHT22;717;51.522;7.266;2023-03-16T06:52:39;8.30;99.90
1447;DHT22;717;51.522;7.266;2023-03-16T06:55:10;8.30;99.90
1447;DHT22;717;51.522;7.266;2023-03-16T06:57:39;8.30;99.90
1447;DHT22;717;51.522;7.266;2023-03-16T07:00:09;8.30;99.90
1447;DHT22;717;51.522;7.266;2023-03-16T07:02:40;8.40;99.90
1447;DHT22;717;51.522;7.266;2023-03-16T07:05:09;8.30;99.90
1447;DHT22;717;51.522;7.266;2023-03-16T07:07:38;8.40;99.90
1447;DHT22;717;51.522;7.266;2023-03-16T07:10:11;8.40;99.90
1447;DHT22;717;51.522;7.266;2023-03-16T07:12:40;8.40;99.90
1447;DHT22;717;51.522;7.266;2023-03-16T07:15:09;8.40;99.90
1447;DHT22;717;51.522;7.266;2023-03-16T07:17:38;8.40;99.90
1447;DHT22;717;51.522;7.266;2023-03-16T07:20:09;8.40;99.90
1447;DHT22;717;51.522;7.266;2023-03-16T07:22:39;8.40;99.90
1447;DHT22;717;51.522;7.266;2023-03-16T07:25:10;8.40;99.90
1447;DHT22;717;51.522;7.266;2023-03-16T07:27:39;8.50;99.90
1447;DHT22;717;51.522;7.266;2023-03-16T07:30:11;8.50;99.90
1447;DHT22;717;51.522;7.266;2023-03-16T07:32:40;8.50;99.90
1447;DHT22;717;51.522;7.266;2023-03-16T07:35:10;8.50;99.90
1447;DHT22;717;51.522;7.266;2023-03-16T07:37:38;8.50;99.90
1447;DHT22;717;51.522;7.266;2023-03-16T07:40:11;8.60;99.90
1447;DHT22;717;51.522;7.266;2023-03-16T07:42:40;8.60;99.90
1447;DHT22;717;51.522;7.266;2023-03-16T07:45:10;8.70;99.90
1447;DHT22;717;51.522;7.266;2023-03-16T07:47:40;8.70;99.90
1447;DHT22;717;51.522;7.266;2023-03-16T07:50:10;8.80;99.90
1447;DHT22;717;51.522;7.266;2023-03-16T07:52:40;8.90;99.90
1447;DHT22;717;51.522;7.266;2023-03-16T07:55:13;8.90;99.90
1447;DHT22;717;51.522;7.266;2023-03-16T07:57:42;9.00;99.90
1447;DHT22;717;51.522;7.266;2023-03-16T08:00:13;9.00;99.90
1447;DHT22;717;51.522;7.266;2023-03-16T08:02:45;9.00;99.90
1447;DHT22;717;51.522;7.266;2023-03-16T08:05:13;9.10;99.90
1447;DHT22;717;51.522;7.266;2023-03-16T08:07:42;9.10;99.90
1447;DHT22;717;51.522;7.266;2023-03-16T08:10:13;9.20;99.90
1447;DHT22;717;51.522;7.266;2023-03-16T08:12:42;9.20;99.90
1447;DHT22;717;51.522;7.266;2023-03-16T08:15:11;9.20;99.90
1447;DHT22;717;51.522;7.266;2023-03-16T08:17:40;9.20;99.90
1447;DHT22;717;51.522;7.266;2023-03-16T08:20:10;9.20;99.90
1447;DHT22;717;51.522;7.266;2023-03-16T08:22:40;9.30;99.90
1447;DHT22;717;51.522;7.266;2023-03-16T08:25:14;9.30;99.90
1447;DHT22;717;51.522;7.266;2023-03-16T08:27:44;9.40;99.90
1447;DHT22;717;51.522;7.266;2023-03-16T08:30:14;9.40;99.90
1447;DHT22;717;51.522;7.266;2023-03-16T08:32:44;9.50;99.90
1447;DHT22;717;51.522;7.266;2023-03-16T08:35:14;9.50;99.90
1447;DHT22;717;51.522;7.266;2023-03-16T08:37:42;9.50;99.90
1447;DHT22;717;51.522;7.266;2023-03-16T08:40:15;9.60;99.90
1447;DHT22;717;51.522;7.266;2023-03-16T08:42:47;9.60;99.90
1447;DHT22;717;51.522;7.266;2023-03-16T08:45:15;9.60;99.90
1447;DHT22;717;51.522;7.266;2023-03-16T08:47:44;9.60;99.90
1447;DHT22;717;51.522;7.266;2023-03-16T08:50:15;9.60;99.90
1447;DHT22;717;51.522;7.266;2023-03-16T08:52:44;9.60;99.90
1447;DHT22;717;51.522;7.266;2023-03-16T08:55:16;9.60;99.90
1447;DHT22;717;51.522;7.266;2023-03-16T08:57:44;9.60;99.90
1447;DHT22;717;51.522;7.266;2023-03-16T09:00:14;9.70;99.90
1447;DHT22;717;51.522;7.266;2023-03-16T09:02:45;9.60;99.90
1447;DHT22;717;51.522;7.266;2023-03-16T09:05:13;9.70;99.90
1447;DHT22;717;51.522;7.266;2023-03-16T09:07:42;9.70;99.90
1447;DHT22;717;51.522;7.266;2023-03-16T09:10:12;9.70;99.90
1447;DHT22;717;51.522;7.266;2023-03-16T09:12:43;9.80;99.90
1447;DHT22;717;51.522;7.266;2023-03-16T09:15:12;9.70;99.90
1447;DHT22;717;51.522;7.266;2023-03-16T09:17:41;9.70;99.90
1447;DHT22;717;51.522;7.266;2023-03-16T09:20:11;9.80;99.90
1447;DHT22;717;51.522;7.266;2023-03-16T09:22:40;9.80;99.90
1447;DHT22;717;51.522;7.266;2023-03-16T09:25:10;9.80;99.90
1447;DHT22;717;51.522;7.266;2023-03-16T09:27:39;9.80;99.90
1447;DHT22;717;51.522;7.266;2023-03-16T09:30:11;9.90;99.90
1447;DHT22;717;51.522;7.266;2023-03-16T09:32:41;9.90;99.90
1447;DHT22;717;51.522;7.266;2023-03-16T09:35:13;9.90;99.90
1447;DHT22;717;51.522;7.266;2023-03-16T09:37:42;9.90;99.90
1447;DHT22;717;51.522;7.266;2023-03-16T09:40:20;9.90;99.90
1447;DHT22;717;51.522;7.266;2023-03-16T09:42:58;9.90;99.90
1447;DHT22;717;51.522;7.266;2023-03-16T09:45:36;10.00;99.90
1447;DHT22;717;51.522;7.266;2023-03-16T09:48:09;10.00;99.90
1447;DHT22;717;51.522;7.266;2023-03-16T09:50:40;10.10;99.90
1447;DHT22;717;51.522;7.266;2023-03-16T09:53:17;10.10;99.90
1447;DHT22;717;51.522;7.266;2023-03-16T09:55:52;10.20;99.90
1447;DHT22;717;51.522;7.266;2023-03-16T09:58:22;10.20;99.90
1447;DHT22;717;51.522;7.266;2023-03-16T10:01:00;10.30;99.90
1447;DHT22;717;51.522;7.266;2023-03-16T10:03:56;10.40;99.90
1447;DHT22;717;51.522;7.266;2023-03-16T10:06:26;10.40;99.90
1447;DHT22;717;51.522;7.266;2023-03-16T10:09:02;10.50;99.90
1447;DHT22;717;51.522;7.266;2023-03-16T10:11:35;10.50;99.90
1447;DHT22;717;51.522;7.266;2023-03-16T10:14:11;10.50;99.90
1447;DHT22;717;51.522;7.266;2023-03-16T10:16:47;10.60;99.90
1447;DHT22;717;51.522;7.266;2023-03-16T10:19:20;10.60;99.90
1447;DHT22;717;51.522;7.266;2023-03-16T10:21:52;10.60;99.90
1447;DHT22;717;51.522;7.266;2023-03-16T10:24:32;10.70;99.90
1447;DHT22;717;51.522;7.266;2023-03-16T10:27:02;10.80;99.90
1447;DHT22;717;51.522;7.266;2023-03-16T10:29:35;10.80;99.90
1447;DHT22;717;51.522;7.266;2023-03-16T10:32:13;10.80;99.90
1447;DHT22;717;51.522;7.266;2023-03-16T10:34:47;10.90;99.90
1447;DHT22;717;51.522;7.266;2023-03-16T10:37:20;10.90;99.90
1447;DHT22;717;51.522;7.266;2023-03-16T10:39:48;10.90;99.90
1447;DHT22;717;51.522;7.266;2023-03-16T10:42:19;11.00;99.90
1447;DHT22;717;51.522;7.266;2023-03-16T10:44:48;11.00;99.90
1447;DHT22;717;51.522;7.266;2023-03-16T10:47:22;11.00;99.90
1447;DHT22;717;51.522;7.266;2023-03-16T10:49:51;11.00;99.90
1447;DHT22;717;51.522;7.266;2023-03-16T10:52:26;11.00;99.90
1447;DHT22;717;51.522;7.266;2023-03-16T10:55:00;11.00;99.90
1447;DHT22;717;51.522;7.266;2023-03-16T10:57:31;11.00;99.90
1447;DHT22;717;51.522;7.266;2023-03-16T11:00:05;11.00;99.90
1447;DHT22;717;51.522;7.266;2023-03-16T11:02:49;11.10;99.90
1447;DHT22;717;51.522;7.266;2023-03-16T11:05:26;11.20;99.90
1447;DHT22;717;51.522;7.266;2023-03-16T11:07:59;11.20;99.90
1447;DHT22;717;51.522;7.266;2023-03-16T11:10:30;11.20;99.90
1447;DHT22;717;51.522;7.266;2023-03-16T11:13:05;11.30;99.90
1447;DHT22;717;51.522;7.266;2023-03-16T11:15:41;11.30;99.90
1447;DHT22;717;51.522;7.266;2023-03-16T11:18:22;11.40;99.90
1447;DHT22;717;51.522;7.266;2023-03-16T11:20:54;11.40;99.90
1447;DHT22;717;51.522;7.266;2023-03-16T11:23:31;11.40;99.90
1447;DHT22;717;51.522;7.266;2023-03-16T11:26:03;11.40;99.90
1447;DHT22;717;51.522;7.266;2023-03-16T11:28:36;11.40;99.90
1447;DHT22;717;51.522;7.266;2023-03-16T11:31:15;11.50;99.90
1447;DHT22;717;51.522;7.266;2023-03-16T11:33:51;11.50;99.90
1447;DHT22;717;51.522;7.266;2023-03-16T11:36:34;11.60;99.90
1447;DHT22;717;51.522;7.266;2023-03-16T11:39:10;11.60;99.90
1447;DHT22;717;51.522;7.266;2023-03-16T11:41:50;11.70;99.90
1447;DHT22;717;51.522;7.266;2023-03-16T11:44:27;11.70;99.90
1447;DHT22;717;51.522;7.266;2023-03-16T11:47:06;11.80;99.90
1447;DHT22;717;51.522;7.266;2023-03-16T11:49:53;11.90;99.90
1447;DHT22;717;51.522;7.266;2023-03-16T11:52:33;12.00;99.90
1447;DHT22;717;51.522;7.266;2023-03-16T11:55:16;12.10;99.90
1447;DHT22;717;51.522;7.266;2023-03-16T11:57:56;12.20;99.90
1447;DHT22;717;51.522;7.266;2023-03-16T12:00:30;12.30;99.90
1447;DHT22;717;51.522;7.266;2023-03-16T12:06:12;12.60;99.90
1447;DHT22;717;51.522;7.266;2023-03-16T12:11:40;12.70;99.90
1447;DHT22;717;51.522;7.266;2023-03-16T12:14:15;12.80;99.90
1447;DHT22;717;51.522;7.266;2023-03-16T12:16:48;12.90;99.90
1447;DHT22;717;51.522;7.266;2023-03-16T12:19:22;13.00;99.90
1447;DHT22;717;51.522;7.266;2023-03-16T12:22:00;13.10;99.90
1447;DHT22;717;51.522;7.266;2023-03-16T12:24:35;13.20;99.90
1447;DHT22;717;51.522;7.266;2023-03-16T12:27:13;13.30;99.90
1447;DHT22;717;51.522;7.266;2023-03-16T12:29:55;13.40;99.90
1447;DHT22;717;51.522;7.266;2023-03-16T12:32:35;13.50;99.90
1447;DHT22;717;51.522;7.266;2023-03-16T12:35:17;13.70;99.90
1447;DHT22;717;51.522;7.266;2023-03-16T12:37:59;13.70;99.90
1447;DHT22;717;51.522;7.266;2023-03-16T12:40:33;13.80;99.90
1447;DHT22;717;51.522;7.266;2023-03-16T12:43:17;13.90;99.90
1447;DHT22;717;51.522;7.266;2023-03-16T12:45:57;13.90;99.90
1447;DHT22;717;51.522;7.266;2023-03-16T12:48:30;14.00;99.90
1447;DHT22;717;51.522;7.266;2023-03-16T12:51:01;13.90;99.90
1447;DHT22;717;51.522;7.266;2023-03-16T12:53:44;13.90;99.90
1447;DHT22;717;51.522;7.266;2023-03-16T12:56:16;13.80;99.90
1447;DHT22;717;51.522;7.266;2023-03-16T12:58:47;13.80;99.90
1447;DHT22;717;51.522;7.266;2023-03-16T13:01:18;13.80;99.90
1447;DHT22;717;51.522;7.266;2023-03-16T13:03:49;13.80;99.90
1447;DHT22;717;51.522;7.266;2023-03-16T13:06:31;13.80;99.90
1447;DHT22;717;51.522;7.266;2023-03-16T13:09:04;13.70;99.90
1447;DHT22;717;51.522;7.266;2023-03-16T13:11:41;13.70;99.90
1447;DHT22;717;51.522;7.266;2023-03-16T13:14:29;13.70;99.90
1447;DHT22;717;51.522;7.266;2023-03-16T13:17:03;13.70;99.90
1447;DHT22;717;51.522;7.266;2023-03-16T13:19:32;13.70;99.90
1447;DHT22;717;51.522;7.266;2023-03-16T13:22:23;13.70;99.90
1447;DHT22;717;51.522;7.266;2023-03-16T13:24:59;13.80;99.90
1447;DHT22;717;51.522;7.266;2023-03-16T13:27:39;13.80;99.90
1447;DHT22;717;51.522;7.266;2023-03-16T13:30:16;13.90;99.90
1447;DHT22;717;51.522;7.266;2023-03-16T13:32:47;13.90;99.90
1447;DHT22;717;51.522;7.266;2023-03-16T13:35:16;13.90;99.90
1447;DHT22;717;51.522;7.266;2023-03-16T13:37:46;13.90;99.90
1447;DHT22;717;51.522;7.266;2023-03-16T13:40:20;14.00;99.90
1447;DHT22;717;51.522;7.266;2023-03-16T13:42:50;14.10;99.90
1447;DHT22;717;51.522;7.266;2023-03-16T13:45:22;14.10;99.90
1447;DHT22;717;51.522;7.266;2023-03-16T13:47:51;14.20;99.90
1447;DHT22;717;51.522;7.266;2023-03-16T13:50:20;14.30;99.90
1447;DHT22;717;51.522;7.266;2023-03-16T13:52:56;14.50;99.90
1447;DHT22;717;51.522;7.266;2023-03-16T13:55:30;14.60;99.90
1447;DHT22;717;51.522;7.266;2023-03-16T13:57:59;14.70;99.90
1447;DHT22;717;51.522;7.266;2023-03-16T14:00:31;14.80;99.90
1447;DHT22;717;51.522;7.266;2023-03-16T14:03:07;14.90;99.90
1447;DHT22;717;51.522;7.266;2023-03-16T14:05:37;15.00;99.90
1447;DHT22;717;51.522;7.266;2023-03-16T14:08:14;15.00;99.90
1447;DHT22;717;51.522;7.266;2023-03-16T14:10:46;15.10;99.90
1447;DHT22;717;51.522;7.266;2023-03-16T14:13:30;15.10;99.90
1447;DHT22;717;51.522;7.266;2023-03-16T14:16:09;15.10;99.90
1447;DHT22;717;51.522;7.266;2023-03-16T14:18:40;15.10;99.90
1447;DHT22;717;51.522;7.266;2023-03-16T14:21:13;15.20;99.90
1447;DHT22;717;51.522;7.266;2023-03-16T14:23:44;15.20;99.90
1447;DHT22;717;51.522;7.266;2023-03-16T14:26:17;15.30;99.90
1447;DHT22;717;51.522;7.266;2023-03-16T14:28:54;15.20;99.90
1447;DHT22;717;51.522;7.266;2023-03-16T14:31:31;15.20;99.90
1447;DHT22;717;51.522;7.266;2023-03-16T14:34:02;15.20;99.90
1447;DHT22;717;51.522;7.266;2023-03-16T14:36:35;15.10;99.90
1447;DHT22;717;51.522;7.266;2023-03-16T14:39:11;15.20;99.90
1447;DHT22;717;51.522;7.266;2023-03-16T14:41:47;15.20;99.90
1447;DHT22;717;51.522;7.266;2023-03-16T14:44:21;15.20;99.90
1447;DHT22;717;51.522;7.266;2023-03-16T14:46:52;15.20;99.90
1447;DHT22;717;51.522;7.266;2023-03-16T14:49:25;15.20;99.90
1447;DHT22;717;51.522;7.266;2023-03-16T14:51:58;15.30;99.90
1447;DHT22;717;51.522;7.266;2023-03-16T14:54:28;15.30;99.90
1447;DHT22;717;51.522;7.266;2023-03-16T14:57:01;15.40;99.90
1447;DHT22;717;51.522;7.266;2023-03-16T14:59:31;15.30;99.90
1447;DHT22;717;51.522;7.266;2023-03-16T15:02:01;15.30;99.90
1447;DHT22;717;51.522;7.266;2023-03-16T15:04:33;15.30;99.90
1447;DHT22;717;51.522;7.266;2023-03-16T15:07:12;15.40;99.90
1447;DHT22;717;51.522;7.266;2023-03-16T15:09:46;15.40;99.90
1447;DHT22;717;51.522;7.266;2023-03-16T15:12:18;15.50;99.90
1447;DHT22;717;51.522;7.266;2023-03-16T15:14:49;15.60;99.90
1447;DHT22;717;51.522;7.266;2023-03-16T15:17:31;15.60;99.90
1447;DHT22;717;51.522;7.266;2023-03-16T15:19:59;15.70;99.90
1447;DHT22;717;51.522;7.266;2023-03-16T15:22:30;15.80;99.90
1447;DHT22;717;51.522;7.266;2023-03-16T15:25:10;15.80;99.90
1447;DHT22;717;51.522;7.266;2023-03-16T15:27:48;15.90;99.90
1447;DHT22;717;51.522;7.266;2023-03-16T15:30:19;15.90;99.90
1447;DHT22;717;51.522;7.266;2023-03-16T15:32:49;15.90;99.90
1447;DHT22;717;51.522;7.266;2023-03-16T15:35:18;16.00;99.90
1447;DHT22;717;51.522;7.266;2023-03-16T15:37:47;16.00;99.90
1447;DHT22;717;51.522;7.266;2023-03-16T15:40:18;15.90;99.90
1447;DHT22;717;51.522;7.266;2023-03-16T15:42:50;16.00;99.90
1447;DHT22;717;51.522;7.266;2023-03-16T15:45:21;16.10;99.90
1447;DHT22;717;51.522;7.266;2023-03-16T15:47:51;16.00;99.90
1447;DHT22;717;51.522;7.266;2023-03-16T15:50:22;16.10;99.90
1447;DHT22;717;51.522;7.266;2023-03-16T15:52:54;16.10;99.90
1447;DHT22;717;51.522;7.266;2023-03-16T15:55:28;16.10;99.90
1447;DHT22;717;51.522;7.266;2023-03-16T15:58:02;16.10;99.90
1447;DHT22;717;51.522;7.266;2023-03-16T16:00:33;16.10;99.90
1447;DHT22;717;51.522;7.266;2023-03-16T16:03:03;16.10;99.90
1447;DHT22;717;51.522;7.266;2023-03-16T16:05:32;16.00;99.90
1447;DHT22;717;51.522;7.266;2023-03-16T16:08:01;16.00;99.90
1447;DHT22;717;51.522;7.266;2023-03-16T16:10:30;16.00;99.90
1447;DHT22;717;51.522;7.266;2023-03-16T16:13:02;16.00;99.90
1447;DHT22;717;51.522;7.266;2023-03-16T16:15:33;15.90;99.90
1447;DHT22;717;51.522;7.266;2023-03-16T16:18:19;15.80;99.90
1447;DHT22;717;51.522;7.266;2023-03-16T16:20:49;15.70;99.90
1447;DHT22;717;51.522;7.266;2023-03-16T16:23:18;15.70;99.90
1447;DHT22;717;51.522;7.266;2023-03-16T16:25:48;15.60;99.90
1447;DHT22;717;51.522;7.266;2023-03-16T16:28:22;15.60;99.90
1447;DHT22;717;51.522;7.266;2023-03-16T16:30:52;15.50;99.90
1447;DHT22;717;51.522;7.266;2023-03-16T16:33:22;15.50;99.90
1447;DHT22;717;51.522;7.266;2023-03-16T16:35:51;15.40;99.90
1447;DHT22;717;51.522;7.266;2023-03-16T16:38:20;15.40;99.90
1447;DHT22;717;51.522;7.266;2023-03-16T16:40:50;15.30;99.90
1447;DHT22;717;51.522;7.266;2023-03-16T16:43:28;15.30;99.90
1447;DHT22;717;51.522;7.266;2023-03-16T16:45:58;15.30;99.90
1447;DHT22;717;51.522;7.266;2023-03-16T16:48:30;15.30;99.90
1447;DHT22;717;51.522;7.266;2023-03-16T16:51:02;15.20;99.90
1447;DHT22;717;51.522;7.266;2023-03-16T16:53:32;15.20;99.90
1447;DHT22;717;51.522;7.266;2023-03-16T16:56:00;15.10;99.90
1447;DHT22;717;51.522;7.266;2023-03-16T16:58:32;15.00;99.90
1447;DHT22;717;51.522;7.266;2023-03-16T17:01:00;14.90;99.90
1447;DHT22;717;51.522;7.266;2023-03-16T17:03:29;14.90;99.90